Time;durP1;ratioP1;P1;durP2;ratioP2;P2;SDS_P1;SDS_P2;PMS_P1;PMS_P2;Temp;Humidity;BMP_temperature;BMP_pressure;BME280_temperature;BME280_humidity;BME280_pressure;Samples;Min_cycle;Max_cycle;Signal;HPM_P1;HPM_P2
2023/11/26 00:03:35;;;;;;;1.05;1.05;;;;;;;-0.49;100.00;96546.44;3964849;28;20443;-71
2023/11/26 00:06:03;;;;;;;1.30;1.20;;;;;;;-0.49;100.00;96529.97;5033427;28;20589;-71
2023/11/26 00:08:41;;;;;;;1.50;1.40;;;;;;;-0.45;100.00;96530.88;5017556;28;20041;-71
2023/11/26 00:11:06;;;;;;;1.92;1.63;;;;;;;-0.38;100.00;96538.59;5013492;28;20531;-71
2023/11/26 00:13:46;;;;;;;1.70;1.60;;;;;;;-0.35;100.00;96522.25;5013537;28;20022;-71
2023/11/26 00:16:12;;;;;;;1.50;1.40;;;;;;;-0.39;100.00;96515.84;5012113;28;20021;-70
2023/11/26 00:18:38;;;;;;;1.48;1.38;;;;;;;-0.35;100.00;96529.72;5021115;28;20452;-69
2023/11/26 00:21:03;;;;;;;1.80;1.60;;;;;;;-0.21;100.00;96532.16;5013237;28;20030;-70
2023/11/26 00:23:29;;;;;;;2.15;1.95;;;;;;;-0.27;100.00;96530.78;5023995;28;20030;-70
2023/11/26 00:25:57;;;;;;;2.65;1.50;;;;;;;-0.22;100.00;96536.06;4995671;28;20112;-70
2023/11/26 00:28:25;;;;;;;2.60;1.92;;;;;;;-0.19;100.00;96543.63;4995278;28;20607;-70
2023/11/26 00:30:51;;;;;;;1.92;1.65;;;;;;;-0.31;100.00;96527.88;4994726;28;20492;-70
2023/11/26 00:33:20;;;;;;;2.30;1.92;;;;;;;-0.09;100.00;96553.41;5012726;28;20026;-70
2023/11/26 00:35:55;;;;;;;2.92;2.28;;;;;;;-0.16;100.00;96537.47;5031806;28;20026;-70
2023/11/26 00:38:22;;;;;;;2.42;2.00;;;;;;;0.06;100.00;96574.78;5028929;28;20146;-70
2023/11/26 00:40:48;;;;;;;2.33;2.13;;;;;;;0.09;100.00;96574.09;5012536;28;20026;-70
2023/11/26 00:43:17;;;;;;;1.60;1.50;;;;;;;0.06;100.00;96561.03;5011772;28;20049;-70
2023/11/26 00:45:45;;;;;;;1.70;1.60;;;;;;;-0.01;100.00;96536.84;5011526;28;20113;-70
2023/11/26 00:48:10;;;;;;;1.20;1.10;;;;;;;0.18;100.00;96553.97;5012856;28;20104;-70
2023/11/26 00:50:39;;;;;;;1.30;1.20;;;;;;;0.24;100.00;96583.66;5012686;28;20017;-70
2023/11/26 00:53:07;;;;;;;1.65;1.55;;;;;;;0.34;100.00;96579.69;5011462;28;20026;-70
2023/11/26 00:55:32;;;;;;;1.10;1.00;;;;;;;0.19;100.00;96552.81;5012073;28;20087;-70
2023/11/26 00:58:09;;;;;;;1.65;1.50;;;;;;;0.26;100.00;96581.38;5012549;28;20050;-70
2023/11/26 01:00:35;;;;;;;1.40;1.30;;;;;;;0.18;100.00;96587.78;4994479;28;20021;-70
2023/11/26 01:03:01;;;;;;;1.33;1.23;;;;;;;0.30;100.00;96603.50;5012596;28;20037;-71
2023/11/26 01:05:35;;;;;;;1.75;1.65;;;;;;;0.25;100.00;96598.22;5007244;28;20048;-70
2023/11/26 01:08:01;;;;;;;1.50;1.40;;;;;;;0.20;100.00;96596.50;5032024;28;20021;-70
2023/11/26 01:10:27;;;;;;;1.92;1.73;;;;;;;0.22;100.00;96596.13;5032111;28;20395;-71
2023/11/26 01:12:52;;;;;;;1.40;1.30;;;;;;;0.18;100.00;96600.72;5015809;28;20033;-71
2023/11/26 01:15:23;;;;;;;1.70;1.60;;;;;;;0.15;100.00;96604.94;5032036;28;20025;-72
2023/11/26 01:17:48;;;;;;;1.15;1.13;;;;;;;0.16;100.00;96622.25;5032115;28;20032;-71
2023/11/26 01:20:14;;;;;;;1.40;1.30;;;;;;;0.17;100.00;96626.59;5031756;28;20022;-71
2023/11/26 01:22:40;;;;;;;1.77;1.65;;;;;;;0.19;100.00;96621.56;5031844;28;20025;-72
2023/11/26 01:25:06;;;;;;;1.50;1.40;;;;;;;0.12;100.00;96611.09;5014109;28;20031;-71
2023/11/26 01:27:32;;;;;;;1.20;1.20;;;;;;;0.13;100.00;96626.47;5030249;28;20033;-72
2023/11/26 01:29:58;;;;;;;2.22;1.30;;;;;;;0.18;100.00;96628.19;5033169;28;20107;-72
2023/11/26 01:32:24;;;;;;;1.15;1.13;;;;;;;0.16;100.00;96614.78;5051656;28;20046;-72
2023/11/26 01:34:50;;;;;;;1.33;1.27;;;;;;;0.20;100.00;96626.72;5051470;28;20059;-72
2023/11/26 01:37:15;;;;;;;0.98;0.98;;;;;;;0.27;100.00;96631.69;5033690;28;20021;-72
2023/11/26 01:39:41;;;;;;;1.13;1.13;;;;;;;0.28;100.00;96639.59;5051394;28;20044;-72
2023/11/26 01:42:07;;;;;;;1.20;1.10;;;;;;;0.30;100.00;96646.69;5033560;28;20077;-72
2023/11/26 01:44:34;;;;;;;1.52;1.35;;;;;;;0.28;100.00;96653.34;5029168;28;20443;-72
2023/11/26 01:47:04;;;;;;;5.68;1.10;;;;;;;0.20;100.00;96658.91;5013762;28;20025;-71
2023/11/26 01:49:30;;;;;;;1.00;1.00;;;;;;;0.24;100.00;96668.09;5031375;28;20455;-72
2023/11/26 01:51:59;;;;;;;1.00;1.00;;;;;;;0.12;100.00;96664.16;5013611;28;20503;-72
2023/11/26 01:54:24;;;;;;;1.67;1.40;;;;;;;0.16;100.00;96689.00;5031180;28;20033;-71
2023/11/26 01:56:50;;;;;;;2.40;1.63;;;;;;;0.12;100.00;96685.31;5031396;28;20028;-71
2023/11/26 01:59:15;;;;;;;1.60;1.50;;;;;;;0.13;100.00;96687.75;5031276;28;20090;-71
2023/11/26 02:01:41;;;;;;;1.38;1.27;;;;;;;0.17;100.00;96709.06;5018046;28;20041;-71
2023/11/26 02:04:07;;;;;;;2.17;1.98;;;;;;;0.28;100.00;96702.81;5031184;28;20052;-71
2023/11/26 02:06:33;;;;;;;1.23;1.05;;;;;;;0.21;100.00;96705.31;5031189;28;20087;-71
2023/11/26 02:08:59;;;;;;;0.88;0.88;;;;;;;0.27;100.00;96720.47;5031177;28;20026;-71
2023/11/26 02:11:24;;;;;;;1.00;1.00;;;;;;;0.29;100.00;96711.88;5031048;28;20091;-71
2023/11/26 02:13:53;;;;;;;2.22;1.73;;;;;;;0.35;100.00;96731.75;5031303;28;20032;-71
2023/11/26 02:16:18;;;;;;;1.90;1.67;;;;;;;0.24;100.00;96723.88;5030746;28;20127;-71
2023/11/26 02:18:44;;;;;;;3.03;2.22;;;;;;;0.25;100.00;96741.22;5031168;28;20479;-71
2023/11/26 02:21:11;;;;;;;2.10;1.90;;;;;;;0.27;100.00;96742.47;5031037;28;20091;-71
2023/11/26 02:23:37;;;;;;;2.90;2.17;;;;;;;0.27;100.00;96747.97;5031134;28;20030;-71
2023/11/26 02:26:10;;;;;;;14.55;8.18;;;;;;;0.24;100.00;96759.63;5030990;28;20032;-71
2023/11/26 02:28:37;;;;;;;5.38;2.67;;;;;;;0.25;100.00;96765.94;5031049;28;20096;-71
2023/11/26 02:31:04;;;;;;;1.40;1.30;;;;;;;0.20;100.00;96774.38;5013176;28;20460;-71
2023/11/26 02:33:30;;;;;;;1.92;1.70;;;;;;;0.28;100.00;96776.28;5030579;28;20108;-71
2023/11/26 02:35:56;;;;;;;1.17;1.00;;;;;;;0.18;100.00;96771.16;5050755;28;20021;-71
2023/11/26 02:38:22;;;;;;;2.13;1.67;;;;;;;0.22;100.00;96778.41;5050890;28;20070;-71
2023/11/26 02:40:48;;;;;;;1.23;1.10;;;;;;;0.31;100.00;96785.81;5032863;28;20116;-71
2023/11/26 02:43:16;;;;;;;1.50;1.40;;;;;;;0.27;100.00;96788.41;5032875;28;20116;-71
2023/11/26 02:45:42;;;;;;;1.23;1.13;;;;;;;0.35;100.00;96792.25;5031922;28;20025;-71
2023/11/26 02:48:08;;;;;;;2.30;1.40;;;;;;;0.41;100.00;96797.22;5030798;28;20447;-71
2023/11/26 02:50:33;;;;;;;2.47;1.08;;;;;;;0.38;100.00;96805.31;5030658;28;20424;-71
2023/11/26 02:52:59;;;;;;;2.92;1.50;;;;;;;0.33;100.00;96803.56;5013099;28;20025;-71
2023/11/26 02:55:25;;;;;;;0.98;0.98;;;;;;;0.40;100.00;96809.38;5030766;28;20404;-71
2023/11/26 02:57:50;;;;;;;1.30;1.10;;;;;;;0.42;100.00;96820.00;5030689;28;20032;-71
2023/11/26 03:00:17;;;;;;;1.35;1.25;;;;;;;0.43;100.00;96824.41;5012953;28;20027;-71
2023/11/26 03:02:45;;;;;;;1.52;1.42;;;;;;;0.43;100.00;96829.91;5012967;28;20053;-71
2023/11/26 03:05:18;;;;;;;1.50;1.10;;;;;;;0.48;100.00;96835.19;5012920;28;20034;-71
2023/11/26 03:07:45;;;;;;;1.80;1.20;;;;;;;0.46;100.00;96831.16;5015167;28;20035;-71
2023/11/26 03:13:07;;;;;;;1.67;1.35;;;;;;;0.41;100.00;96846.72;5034200;28;20036;-71
2023/11/26 03:15:37;;;;;;;1.23;1.13;;;;;;;0.46;100.00;96858.66;5034255;28;20492;-71
2023/11/26 03:18:07;;;;;;;0.95;0.95;;;;;;;0.48;100.00;96846.19;5016607;28;20112;-71
2023/11/26 03:20:37;;;;;;;1.20;1.10;;;;;;;0.54;100.00;96863.31;5034218;28;20021;-71
2023/11/26 03:23:03;;;;;;;0.93;0.93;;;;;;;0.49;100.00;96869.03;5033578;28;20029;-71
2023/11/26 03:25:30;;;;;;;1.35;1.25;;;;;;;0.54;100.00;96877.06;5034153;28;20558;-71
2023/11/26 03:27:58;;;;;;;1.35;1.15;;;;;;;0.59;100.00;96889.84;5034011;28;20028;-71
2023/11/26 03:30:26;;;;;;;1.25;1.15;;;;;;;0.70;100.00;96886.34;5032702;28;20021;-71
2023/11/26 03:32:56;;;;;;;2.92;2.42;;;;;;;0.74;100.00;96903.00;5033396;28;20033;-71
2023/11/26 03:35:21;;;;;;;1.05;1.05;;;;;;;0.77;100.00;96912.56;5033861;28;20021;-71
2023/11/26 03:37:48;;;;;;;1.50;1.40;;;;;;;0.83;100.00;96923.03;5015938;28;20429;-71
2023/11/26 03:40:13;;;;;;;1.13;1.10;;;;;;;0.83;100.00;96916.72;5015957;28;20021;-71
2023/11/26 03:42:39;;;;;;;1.23;1.13;;;;;;;0.81;100.00;96924.50;5016181;28;20083;-71
2023/11/26 03:45:06;;;;;;;1.40;1.30;;;;;;;0.79;100.00;96948.78;5033796;28;20057;-71
2023/11/26 03:47:32;;;;;;;1.25;1.00;;;;;;;0.86;100.00;96953.78;5015768;28;20414;-71
2023/11/26 03:49:57;;;;;;;0.90;0.90;;;;;;;0.84;100.00;96965.94;5033723;28;20044;-71
2023/11/26 03:52:23;;;;;;;1.02;1.02;;;;;;;0.88;100.00;96963.31;5033610;28;20293;-71
2023/11/26 03:54:49;;;;;;;1.35;1.33;;;;;;;0.91;100.00;96967.38;5015890;28;20025;-71
2023/11/26 03:57:15;;;;;;;0.90;0.90;;;;;;;0.88;100.00;96968.00;5033516;28;20021;-71
2023/11/26 03:59:44;;;;;;;1.27;1.00;;;;;;;0.89;100.00;96978.69;5033468;28;20017;-71
2023/11/26 04:02:10;;;;;;;1.80;1.50;;;;;;;0.81;100.00;96985.88;5033409;28;20030;-71
2023/11/26 04:04:36;;;;;;;2.13;1.92;;;;;;;0.84;100.00;96984.38;5015448;28;20502;-72
2023/11/26 04:07:01;;;;;;;1.77;1.67;;;;;;;0.90;100.00;96977.56;5033617;28;20029;-71
2023/11/26 04:09:28;;;;;;;2.00;1.80;;;;;;;0.97;100.00;96988.03;5015535;28;20025;-72
2023/11/26 04:11:56;;;;;;;6.50;3.97;;;;;;;0.91;100.00;97000.41;5033194;28;20100;-72
2023/11/26 04:14:33;;;;;;;1.38;1.27;;;;;;;0.83;100.00;97002.03;5033223;28;20025;-72
2023/11/26 04:16:58;;;;;;;1.75;1.65;;;;;;;0.84;100.00;97004.47;5015248;28;20037;-72
2023/11/26 04:19:24;;;;;;;1.65;1.55;;;;;;;0.77;100.00;97014.38;5033139;28;20025;-72
2023/11/26 04:21:50;;;;;;;2.65;1.85;;;;;;;0.77;100.00;97023.44;5023541;28;20034;-72
2023/11/26 04:24:15;;;;;;;1.70;1.60;;;;;;;0.83;100.00;97035.06;5032956;28;20017;-72
2023/11/26 04:26:41;;;;;;;2.20;2.00;;;;;;;0.83;100.00;97033.13;5015152;28;20025;-72
2023/11/26 04:29:07;;;;;;;2.65;2.45;;;;;;;0.81;100.00;97040.09;5032959;28;20447;-72
2023/11/26 04:31:33;;;;;;;1.63;1.52;;;;;;;0.80;100.00;97041.22;5015081;28;20021;-72
2023/11/26 04:34:00;;;;;;;1.20;1.20;;;;;;;0.81;100.00;97053.84;5032749;28;20025;-72
2023/11/26 04:36:27;;;;;;;1.45;1.30;;;;;;;0.76;100.00;97062.31;5032887;28;20512;-71
2023/11/26 04:38:53;;;;;;;1.50;1.40;;;;;;;0.77;100.00;97055.66;5032337;28;20075;-72
2023/11/26 04:41:20;;;;;;;1.92;1.50;;;;;;;0.81;100.00;97062.09;5014925;28;20499;-71
2023/11/26 04:43:46;;;;;;;1.98;1.77;;;;;;;0.78;100.00;97062.78;5032192;28;20044;-72
2023/11/26 04:46:14;;;;;;;3.05;2.33;;;;;;;0.78;100.00;97068.28;5032576;28;20021;-71
2023/11/26 04:48:39;;;;;;;1.65;1.55;;;;;;;0.80;100.00;97082.50;5015100;28;20040;-71
2023/11/26 04:51:06;;;;;;;1.88;1.70;;;;;;;0.83;100.00;97092.84;5032589;28;20017;-71
2023/11/26 04:53:32;;;;;;;1.75;1.65;;;;;;;0.79;100.00;97100.97;5014584;28;20022;-71
2023/11/26 04:55:58;;;;;;;2.10;1.60;;;;;;;0.86;100.00;97118.91;5014635;28;20034;-71
2023/11/26 04:58:24;;;;;;;1.60;1.40;;;;;;;0.91;100.00;97116.81;5014457;28;20044;-71
2023/11/26 05:00:51;;;;;;;1.83;1.50;;;;;;;0.88;100.00;97128.47;5032255;28;20025;-71
2023/11/26 05:03:17;;;;;;;7.78;3.50;;;;;;;0.91;100.00;97140.78;5032252;28;20025;-72
2023/11/26 05:05:43;;;;;;;5.10;3.00;;;;;;;0.92;100.00;97145.16;5014434;28;20041;-71
2023/11/26 05:08:09;;;;;;;1.70;1.60;;;;;;;0.95;100.00;97150.00;5014330;28;20109;-72
2023/11/26 05:10:35;;;;;;;2.35;1.73;;;;;;;0.89;100.00;97165.88;5031919;28;20032;-71
2023/11/26 05:13:01;;;;;;;4.43;2.95;;;;;;;0.88;100.00;97171.69;5032040;28;20105;-72
2023/11/26 05:15:28;;;;;;;2.88;2.08;;;;;;;0.88;100.00;97186.28;5032064;28;20021;-72
2023/11/26 05:17:53;;;;;;;4.75;3.88;;;;;;;0.81;100.00;97183.22;5031972;28;20025;-71
2023/11/26 05:20:19;;;;;;;4.97;3.85;;;;;;;0.83;100.00;97191.94;5031906;28;20498;-72
2023/11/26 05:22:45;;;;;;;3.28;2.88;;;;;;;0.83;100.00;97211.22;5032187;28;20029;-72
2023/11/26 05:25:10;;;;;;;4.95;3.00;;;;;;;0.86;100.00;97207.81;5031906;28;20021;-71
2023/11/26 05:27:36;;;;;;;8.10;3.38;;;;;;;0.79;100.00;97207.50;5031595;28;20028;-71
2023/11/26 05:30:03;;;;;;;1.27;1.17;;;;;;;0.89;100.00;97226.44;5013534;28;20029;-72
2023/11/26 05:32:28;;;;;;;4.13;3.28;;;;;;;0.86;100.00;97220.75;5031773;28;20028;-72
2023/11/26 05:34:55;;;;;;;1.67;1.58;;;;;;;0.82;100.00;97235.19;5031544;28;20087;-71
2023/11/26 05:37:21;;;;;;;2.00;1.88;;;;;;;0.80;100.00;97231.13;5031778;28;20463;-72
2023/11/26 05:39:46;;;;;;;4.18;3.00;;;;;;;0.84;100.00;97241.16;5031410;28;20483;-71
2023/11/26 05:42:13;;;;;;;6.95;5.28;;;;;;;0.77;100.00;97242.81;5031817;28;20107;-72
2023/11/26 05:44:38;;;;;;;6.38;4.43;;;;;;;0.76;100.00;97261.25;5013691;28;20056;-71
2023/11/26 05:47:04;;;;;;;6.85;4.03;;;;;;;0.77;100.00;97267.56;5013503;28;20060;-73
2023/11/26 05:49:30;;;;;;;6.72;4.00;;;;;;;0.70;100.00;97277.09;5031447;28;20021;-71
2023/11/26 05:51:58;;;;;;;5.78;4.15;;;;;;;0.72;100.00;97281.47;5031480;28;20032;-71
2023/11/26 05:54:24;;;;;;;4.13;3.05;;;;;;;0.79;100.00;97277.13;5031389;28;20045;-71
2023/11/26 05:56:50;;;;;;;5.35;3.78;;;;;;;0.82;100.00;97284.72;5013639;28;20021;-71
2023/11/26 05:59:16;;;;;;;11.48;7.25;;;;;;;0.86;100.00;97286.81;5031276;28;20041;-71
2023/11/26 06:01:42;;;;;;;7.55;5.25;;;;;;;0.83;100.00;97296.53;5030670;28;20036;-71
2023/11/26 06:04:07;;;;;;;5.45;4.13;;;;;;;0.83;100.00;97296.53;5029860;28;20116;-72
2023/11/26 06:06:33;;;;;;;4.32;3.42;;;;;;;0.75;100.00;97308.38;5029910;28;20026;-71
2023/11/26 06:08:59;;;;;;;2.65;2.17;;;;;;;0.62;100.00;97310.94;5031097;28;20026;-73
2023/11/26 06:11:24;;;;;;;2.78;2.30;;;;;;;0.66;100.00;97319.34;5031151;28;20072;-71
2023/11/26 06:13:50;;;;;;;3.45;2.88;;;;;;;0.67;100.00;97329.25;5031046;28;20029;-71
2023/11/26 06:16:16;;;;;;;8.52;3.53;;;;;;;0.66;100.00;97331.19;5029810;28;20026;-71
2023/11/26 06:18:41;;;;;;;4.20;3.00;;;;;;;0.75;100.00;97349.66;5030832;28;20079;-71
2023/11/26 06:21:06;;;;;;;4.22;2.80;;;;;;;0.78;100.00;97347.03;5013245;28;20029;-71
2023/11/26 06:23:32;;;;;;;6.82;5.03;;;;;;;0.82;100.00;97360.97;5013328;28;20021;-75
2023/11/26 06:25:58;;;;;;;5.00;4.00;;;;;;;0.78;100.00;97360.00;5031086;28;20030;-71
2023/11/26 06:28:24;;;;;;;5.03;4.38;;;;;;;0.83;100.00;97371.69;5013092;28;20029;-71
2023/11/26 06:30:49;;;;;;;5.63;4.70;;;;;;;0.84;100.00;97380.72;5031127;28;20024;-73
2023/11/26 06:33:18;;;;;;;6.18;5.05;;;;;;;0.87;100.00;97391.13;5030975;28;20030;-70
2023/11/26 06:35:43;;;;;;;6.85;4.95;;;;;;;0.84;100.00;97400.00;5030491;28;20507;-73
2023/11/26 06:38:10;;;;;;;7.45;5.50;;;;;;;0.84;100.00;97398.06;5013277;28;20053;-74
2023/11/26 06:40:36;;;;;;;6.80;5.35;;;;;;;0.78;100.00;97410.34;5028366;28;20442;-71
2023/11/26 06:43:08;;;;;;;7.53;6.18;;;;;;;0.78;100.00;97417.81;5031724;28;20472;-71
2023/11/26 06:45:34;;;;;;;6.90;5.35;;;;;;;0.83;100.00;97420.41;5040299;28;20070;-73
2023/11/26 06:48:01;;;;;;;5.53;4.53;;;;;;;0.80;100.00;97429.31;5034246;28;20017;-70
2023/11/26 06:50:27;;;;;;;6.55;4.78;;;;;;;0.79;100.00;97445.03;5034047;28;20056;-70
2023/11/26 06:52:52;;;;;;;7.80;6.30;;;;;;;0.77;100.00;97460.22;5048398;28;20029;-72
2023/11/26 06:55:18;;;;;;;7.53;6.20;;;;;;;0.75;100.00;97468.00;5039980;28;20544;-71
2023/11/26 06:57:44;;;;;;;5.38;4.80;;;;;;;0.77;100.00;97474.78;5050092;28;20585;-71
2023/11/26 07:00:11;;;;;;;6.40;5.10;;;;;;;0.66;100.00;97477.03;5013890;28;20064;-71
2023/11/26 07:02:37;;;;;;;10.63;7.30;;;;;;;0.75;100.00;97503.78;5014089;28;20065;-72
2023/11/26 07:05:04;;;;;;;7.97;6.05;;;;;;;0.54;100.00;97507.91;5021470;28;20129;-71
2023/11/26 07:07:29;;;;;;;6.30;5.38;;;;;;;0.65;100.00;97493.84;5029776;28;20046;-73
2023/11/26 07:09:57;;;;;;;6.38;4.95;;;;;;;0.60;100.00;97513.25;5014187;28;20937;-75
2023/11/26 07:12:22;;;;;;;6.82;5.70;;;;;;;0.69;100.00;97539.69;5019563;28;20037;-75
2023/11/26 07:14:50;;;;;;;11.43;7.45;;;;;;;0.66;100.00;97551.34;5048488;28;20090;-78
2023/11/26 07:17:15;;;;;;;7.43;6.18;;;;;;;0.64;100.00;97531.56;5025795;28;20025;-79
2023/11/26 07:19:41;;;;;;;10.07;6.05;;;;;;;0.68;100.00;97565.56;5043310;28;20020;-74
2023/11/26 07:22:07;;;;;;;8.13;6.47;;;;;;;0.64;100.00;97564.59;5037081;28;20032;-74
2023/11/26 07:24:33;;;;;;;9.85;6.93;;;;;;;0.62;100.00;97579.78;5032265;28;20025;-74
2023/11/26 07:26:58;;;;;;;8.73;6.53;;;;;;;0.64;100.00;97583.03;5032169;28;20021;-75
2023/11/26 07:29:24;;;;;;;9.30;6.35;;;;;;;0.60;100.00;97582.06;5050328;28;20072;-78
2023/11/26 07:31:49;;;;;;;7.57;5.45;;;;;;;0.61;100.00;97597.44;5050313;28;20024;-71
2023/11/26 07:34:15;;;;;;;12.75;4.90;;;;;;;0.63;100.00;97608.94;5050349;28;20066;-75
2023/11/26 07:36:42;;;;;;;9.43;4.45;;;;;;;0.61;100.00;97614.78;5032399;28;20471;-75
2023/11/26 07:39:08;;;;;;;10.65;6.97;;;;;;;0.51;100.00;97604.81;5049284;28;20101;-75
2023/11/26 07:41:34;;;;;;;10.27;6.38;;;;;;;0.54;100.00;97609.72;5054111;28;20025;-74
2023/11/26 07:43:59;;;;;;;16.98;7.45;;;;;;;0.51;100.00;97623.28;5063969;28;20498;-74
2023/11/26 07:46:25;;;;;;;28.98;12.40;;;;;;;0.52;100.00;97635.91;5051231;28;20830;-71
2023/11/26 07:48:51;;;;;;;14.10;8.55;;;;;;;0.50;100.00;97627.97;5031263;28;20031;-70
2023/11/26 07:51:17;;;;;;;13.93;8.50;;;;;;;0.45;100.00;97639.09;5031457;28;20028;-69
2023/11/26 07:53:43;;;;;;;13.60;7.90;;;;;;;0.51;100.00;97642.53;5028579;28;20120;-72
2023/11/26 07:56:08;;;;;;;26.30;8.63;;;;;;;0.43;100.00;97662.53;5042273;28;20103;-71
2023/11/26 07:58:34;;;;;;;12.15;7.72;;;;;;;0.46;100.00;97662.72;5049730;28;20033;-72
2023/11/26 08:01:03;;;;;;;11.90;8.18;;;;;;;0.50;99.96;97679.44;5031440;28;20048;-72
2023/11/26 08:03:34;;;;;;;11.10;6.88;;;;;;;0.45;100.00;97676.78;5049532;28;20510;-70
2023/11/26 08:06:00;;;;;;;12.23;6.40;;;;;;;0.45;99.70;97687.78;5049488;28;20052;-71
2023/11/26 08:08:32;;;;;;;10.13;6.43;;;;;;;0.52;99.07;97699.19;5049351;28;20104;-70
2023/11/26 08:10:58;;;;;;;12.82;6.97;;;;;;;0.52;100.00;97699.19;5030810;28;20032;-76
2023/11/26 08:13:27;;;;;;;11.68;7.50;;;;;;;0.54;99.19;97708.75;5049106;28;20104;-71
2023/11/26 08:15:56;;;;;;;10.48;6.13;;;;;;;0.55;99.50;97704.06;5031491;28;20574;-74
2023/11/26 08:18:22;;;;;;;10.10;5.35;;;;;;;0.61;97.87;97708.34;5048889;28;20032;-72
2023/11/26 08:20:48;;;;;;;9.32;5.75;;;;;;;0.60;98.21;97725.94;5049359;28;20515;-72
2023/11/26 08:23:14;;;;;;;15.68;7.25;;;;;;;0.61;99.01;97713.00;5049315;28;20036;-72
2023/11/26 08:25:40;;;;;;;9.10;5.72;;;;;;;0.63;96.91;97710.75;5041518;28;20818;-71
2023/11/26 08:28:06;;;;;;;13.52;8.13;;;;;;;0.61;96.12;97724.84;5043940;28;20028;-74
2023/11/26 08:30:44;;;;;;;6.53;5.20;;;;;;;0.67;94.61;97734.59;5049119;28;20101;-72
2023/11/26 08:33:12;;;;;;;6.78;5.05;;;;;;;0.70;93.96;97749.66;5030991;28;20077;-75
2023/11/26 08:35:40;;;;;;;6.60;5.45;;;;;;;0.66;94.69;97760.47;5049096;28;20051;-77
2023/11/26 08:38:07;;;;;;;8.38;6.13;;;;;;;0.70;92.62;97752.41;5049104;28;20359;-72
2023/11/26 08:40:35;;;;;;;5.28;4.15;;;;;;;0.79;89.23;97778.09;5048057;28;20028;-74
2023/11/26 08:43:09;;;;;;;9.65;6.07;;;;;;;0.78;89.51;97801.19;5023011;28;20044;-74
2023/11/26 08:45:42;;;;;;;10.48;6.75;;;;;;;0.72;92.53;97793.38;5045666;28;20048;-72
2023/11/26 08:48:10;;;;;;;5.78;4.13;;;;;;;0.77;89.11;97812.53;5048179;28;20029;-74
2023/11/26 08:50:36;;;;;;;5.30;4.03;;;;;;;0.81;87.37;97821.78;5048884;28;20024;-73
2023/11/26 08:53:05;;;;;;;6.97;5.15;;;;;;;0.80;88.04;97837.50;5031238;28;20036;-78
2023/11/26 08:55:32;;;;;;;8.20;5.10;;;;;;;0.74;90.18;97821.44;5031389;28;20032;-73
2023/11/26 08:57:58;;;;;;;8.57;5.60;;;;;;;0.76;90.06;97850.25;5027280;28;20448;-76
2023/11/26 09:00:23;;;;;;;10.00;5.57;;;;;;;0.76;88.87;97852.19;5036365;28;20044;-70
2023/11/26 09:02:49;;;;;;;10.00;6.60;;;;;;;0.80;88.29;97859.53;5041282;28;20098;-72
2023/11/26 09:05:14;;;;;;;8.43;6.80;;;;;;;0.76;90.36;97858.50;5029738;28;20044;-72
2023/11/26 09:07:41;;;;;;;12.85;6.43;;;;;;;0.83;89.67;97867.16;5031443;28;20044;-71
2023/11/26 09:10:08;;;;;;;7.20;5.55;;;;;;;0.78;88.03;97866.47;5048428;28;20064;-72
2023/11/26 09:12:33;;;;;;;13.18;4.68;;;;;;;0.82;88.26;97875.72;5048578;28;20056;-72
2023/11/26 09:14:59;;;;;;;7.43;5.40;;;;;;;0.86;87.52;97885.00;5048592;28;20718;-75
2023/11/26 09:17:26;;;;;;;7.75;5.00;;;;;;;0.83;86.83;97875.44;5053700;28;20036;-73
2023/11/26 09:19:52;;;;;;;10.10;5.30;;;;;;;0.90;88.30;97897.03;5053569;28;20032;-71
2023/11/26 09:22:18;;;;;;;8.05;5.25;;;;;;;0.99;87.95;97888.84;5048763;28;20025;-75
2023/11/26 09:24:43;;;;;;;9.35;5.28;;;;;;;0.96;86.56;97901.28;5030679;28;20114;-72
2023/11/26 09:27:09;;;;;;;6.57;5.50;;;;;;;0.97;87.89;97922.22;5030221;28;20025;-73
2023/11/26 09:29:34;;;;;;;5.90;4.97;;;;;;;1.00;86.65;97911.69;5047702;28;20036;-72
2023/11/26 09:32:00;;;;;;;9.35;6.03;;;;;;;0.98;87.51;97920.25;5048430;28;20048;-71
2023/11/26 09:34:25;;;;;;;9.30;5.93;;;;;;;1.02;88.19;97925.97;5026557;28;20068;-79
2023/11/26 09:36:56;;;;;;;7.93;6.20;;;;;;;0.90;88.23;97923.72;5048174;28;20086;-71
2023/11/26 09:39:21;;;;;;;8.38;5.22;;;;;;;0.96;88.75;97931.56;5029374;28;20582;-73
2023/11/26 09:41:47;;;;;;;7.93;5.97;;;;;;;0.92;87.36;97925.06;5047658;28;20045;-74
2023/11/26 09:44:13;;;;;;;8.13;5.78;;;;;;;0.93;87.56;97934.94;5048413;28;20037;-72
2023/11/26 09:46:44;;;;;;;7.63;5.00;;;;;;;0.96;86.90;97933.53;5030227;28;20056;-73
2023/11/26 09:49:09;;;;;;;5.82;4.57;;;;;;;0.96;86.68;97939.03;5048346;28;20094;-78
2023/11/26 09:51:37;;;;;;;10.60;4.97;;;;;;;0.94;84.96;97944.03;5027221;28;20036;-70
2023/11/26 09:54:06;;;;;;;5.57;4.88;;;;;;;1.03;86.24;97950.44;5049419;28;20020;-74
2023/11/26 09:56:33;;;;;;;13.13;7.03;;;;;;;0.93;86.87;97934.94;5047938;28;20033;-70
2023/11/26 09:58:58;;;;;;;6.47;4.43;;;;;;;0.96;86.81;97939.81;5047760;28;20043;-72
2023/11/26 10:01:24;;;;;;;6.43;4.97;;;;;;;0.94;88.13;97944.84;5048138;28;20033;-73
2023/11/26 10:04:04;;;;;;;10.80;6.32;;;;;;;0.93;88.75;97940.44;5029783;28;20029;-71
2023/11/26 10:06:30;;;;;;;12.30;6.05;;;;;;;0.96;86.94;97939.81;5029962;28;20064;-72
2023/11/26 10:08:57;;;;;;;6.90;4.82;;;;;;;0.95;88.19;97940.94;5046656;28;20056;-70
2023/11/26 10:11:25;;;;;;;5.05;4.32;;;;;;;1.02;85.85;97942.50;5033194;28;20037;-70
2023/11/26 10:13:51;;;;;;;7.43;4.32;;;;;;;1.05;85.12;97941.84;5055690;28;20107;-69
2023/11/26 10:16:33;;;;;;;4.30;3.67;;;;;;;1.07;84.88;97950.63;5051417;28;20028;-71
2023/11/26 10:19:00;;;;;;;6.63;3.90;;;;;;;0.97;85.43;97960.75;5051484;28;20547;-72
2023/11/26 10:21:26;;;;;;;10.18;4.60;;;;;;;0.97;86.38;97969.03;5029849;28;20329;-71
2023/11/26 10:23:51;;;;;;;6.78;4.82;;;;;;;1.00;87.87;97972.28;5027218;28;20087;-71
2023/11/26 10:26:28;;;;;;;9.15;4.72;;;;;;;0.92;83.91;97974.63;5029018;28;20517;-75
2023/11/26 10:29:08;;;;;;;7.95;4.97;;;;;;;0.93;86.32;97983.72;5038735;28;20302;-72
2023/11/26 10:31:33;;;;;;;7.45;5.40;;;;;;;0.91;85.57;97992.25;5035173;28;20021;-71
2023/11/26 10:34:10;;;;;;;5.63;4.70;;;;;;;0.98;84.49;97997.34;5047155;28;20130;-70
2023/11/26 10:36:35;;;;;;;5.43;4.38;;;;;;;0.94;84.85;98001.84;5046907;28;20035;-69
2023/11/26 10:39:04;;;;;;;12.80;5.05;;;;;;;0.95;86.64;98007.03;5041111;28;20508;-69
2023/11/26 10:41:34;;;;;;;7.13;5.55;;;;;;;1.03;86.04;98019.28;5047924;28;20513;-70
2023/11/26 10:44:00;;;;;;;10.27;5.07;;;;;;;1.03;84.47;98026.72;5047829;28;20033;-70
2023/11/26 10:49:51;;;;;;;6.05;4.45;;;;;;;1.09;82.35;98047.53;5395340;22;20116;-82
2023/11/26 10:52:26;;;;;;;10.38;4.97;;;;;;;1.10;83.51;98055.47;5027781;28;20104;-82
2023/11/26 10:55:07;;;;;;;5.00;4.13;;;;;;;1.09;83.05;98062.13;5025974;28;20025;-81
2023/11/26 10:57:39;;;;;;;8.10;5.32;;;;;;;1.08;83.78;98059.66;5030702;28;20418;-81
2023/11/26 11:14:07;;;;;;;9.55;4.55;;;;;;;1.37;79.81;98067.59;5105865;27;21234;-74
2023/11/26 11:16:32;;;;;;;6.85;5.07;;;;;;;1.39;82.54;98056.28;5105829;28;20036;-76
2023/11/26 11:18:58;;;;;;;9.48;5.70;;;;;;;1.43;80.30;98062.00;5104541;28;20028;-75
2023/11/26 11:21:24;;;;;;;9.88;6.28;;;;;;;1.46;81.95;98072.38;5103422;28;20027;-75
2023/11/26 11:23:54;;;;;;;6.82;4.28;;;;;;;1.47;80.10;98058.31;5102207;28;20035;-75
2023/11/26 11:26:25;;;;;;;;;;;;;;;1.42;81.17;98071.38;5106165;28;20047;-76
2023/11/26 11:28:53;;;;;;;8.90;4.63;;;;;;;1.34;80.14;98078.44;5105819;28;19911;-77
2023/11/26 11:31:58;;;;;;;13.02;5.40;;;;;;;1.40;76.08;98085.47;5104578;28;20026;-80
2023/11/26 11:34:24;;;;;;;6.47;4.70;;;;;;;1.39;79.09;98092.91;5091241;28;20078;-75
2023/11/26 11:36:51;;;;;;;8.90;5.55;;;;;;;1.50;78.65;98107.28;5106916;28;20510;-76
2023/11/26 11:39:25;;;;;;;6.63;4.93;;;;;;;1.46;78.23;98110.97;5096686;28;20027;-75
2023/11/26 11:41:56;;;;;;;7.50;3.80;;;;;;;1.47;76.31;98123.63;5092016;28;20455;-76
2023/11/26 11:44:34;;;;;;;8.43;5.60;;;;;;;1.48;79.04;98141.78;5106031;28;20028;-75
2023/11/26 11:47:06;;;;;;;10.30;6.95;;;;;;;1.55;75.59;98158.72;5106228;28;20039;-77
2023/11/26 11:49:53;;;;;;;6.30;5.05;;;;;;;1.56;75.94;98165.06;5106025;28;20016;-78
2023/11/26 11:52:20;;;;;;;16.17;9.73;;;;;;;1.46;79.15;98161.41;5105570;28;20019;-76
2023/11/26 11:54:57;;;;;;;13.23;7.38;;;;;;;1.47;74.93;98171.28;5107622;28;20023;-72
2023/11/26 11:57:27;;;;;;;11.93;6.68;;;;;;;1.44;77.10;98179.34;5101872;28;20028;-75